sensor_id;sensor_type;location;lat;lon;timestamp;pressure;altitude;pressure_sealevel;temperature;humidity
58239;BME280;44037;55.638;37.356;2023-03-11T00:00:45;98609.00;;;-4.33;64.49
58239;BME280;44037;55.638;37.356;2023-03-11T00:03:14;98609.97;;;-4.31;64.72
58239;BME280;44037;55.638;37.356;2023-03-11T00:05:43;98602.44;;;-4.29;64.49
58239;BME280;44037;55.638;37.356;2023-03-11T00:08:14;98608.44;;;-4.27;64.55
58239;BME280;44037;55.638;37.356;2023-03-11T00:10:43;98604.41;;;-4.24;64.53
58239;BME280;44037;55.638;37.356;2023-03-11T00:13:13;98601.88;;;-4.24;64.53
58239;BME280;44037;55.638;37.356;2023-03-11T00:15:41;98600.31;;;-4.22;64.41
58239;BME280;44037;55.638;37.356;2023-03-11T00:18:08;98595.19;;;-4.23;64.24
58239;BME280;44037;55.638;37.356;2023-03-11T00:20:38;98598.50;;;-4.24;63.96
58239;BME280;44037;55.638;37.356;2023-03-11T00:23:06;98594.28;;;-4.24;64.06
58239;BME280;44037;55.638;37.356;2023-03-11T00:25:37;98597.63;;;-4.25;63.71
58239;BME280;44037;55.638;37.356;2023-03-11T00:28:05;98599.28;;;-4.25;63.63
58239;BME280;44037;55.638;37.356;2023-03-11T00:30:35;98594.22;;;-4.25;63.68
58239;BME280;44037;55.638;37.356;2023-03-11T00:33:02;98590.75;;;-4.27;63.64
58239;BME280;44037;55.638;37.356;2023-03-11T00:35:31;98594.78;;;-4.31;63.27
58239;BME280;44037;55.638;37.356;2023-03-11T00:38:00;98589.72;;;-4.31;63.23
58239;BME280;44037;55.638;37.356;2023-03-11T00:40:30;98582.13;;;-4.31;63.57
58239;BME280;44037;55.638;37.356;2023-03-11T00:42:59;98587.09;;;-4.33;63.17
58239;BME280;44037;55.638;37.356;2023-03-11T00:45:27;98594.63;;;-4.34;63.22
58239;BME280;44037;55.638;37.356;2023-03-11T00:47:54;98591.19;;;-4.35;63.29
58239;BME280;44037;55.638;37.356;2023-03-11T00:50:23;98588.59;;;-4.36;63.06
58239;BME280;44037;55.638;37.356;2023-03-11T00:52:51;98592.72;;;-4.38;63.38
58239;BME280;44037;55.638;37.356;2023-03-11T00:55:20;98597.63;;;-4.41;62.99
58239;BME280;44037;55.638;37.356;2023-03-11T00:57:51;98596.69;;;-4.43;63.25
58239;BME280;44037;55.638;37.356;2023-03-11T01:00:21;98598.88;;;-4.50;62.85
58239;BME280;44037;55.638;37.356;2023-03-11T01:02:49;98595.38;;;-4.52;63.28
58239;BME280;44037;55.638;37.356;2023-03-11T01:05:18;98592.88;;;-4.52;63.12
58239;BME280;44037;55.638;37.356;2023-03-11T01:07:45;98597.84;;;-4.53;63.13
58239;BME280;44037;55.638;37.356;2023-03-11T01:10:13;98591.06;;;-4.54;63.10
58239;BME280;44037;55.638;37.356;2023-03-11T01:12:40;98596.13;;;-4.54;63.42
58239;BME280;44037;55.638;37.356;2023-03-11T01:15:10;98591.94;;;-4.54;63.50
58239;BME280;44037;55.638;37.356;2023-03-11T01:17:42;98585.22;;;-4.53;63.28
58239;BME280;44037;55.638;37.356;2023-03-11T01:20:10;98577.63;;;-4.53;63.19
58239;BME280;44037;55.638;37.356;2023-03-11T01:22:37;98584.34;;;-4.54;63.25
58239;BME280;44037;55.638;37.356;2023-03-11T01:25:05;98585.13;;;-4.55;63.60
58239;BME280;44037;55.638;37.356;2023-03-11T01:27:32;98579.97;;;-4.56;63.53
58239;BME280;44037;55.638;37.356;2023-03-11T01:29:59;98582.63;;;-4.55;63.61
58239;BME280;44037;55.638;37.356;2023-03-11T01:32:27;98584.34;;;-4.54;63.59
58239;BME280;44037;55.638;37.356;2023-03-11T01:34:55;98586.00;;;-4.54;63.50
58239;BME280;44037;55.638;37.356;2023-03-11T01:37:22;98578.47;;;-4.53;63.64
58239;BME280;44037;55.638;37.356;2023-03-11T01:39:49;98581.91;;;-4.52;63.47
58239;BME280;44037;55.638;37.356;2023-03-11T01:42:16;98576.84;;;-4.52;63.70
58239;BME280;44037;55.638;37.356;2023-03-11T01:44:43;98585.28;;;-4.52;63.50
58239;BME280;44037;55.638;37.356;2023-03-11T01:47:37;98588.69;;;-4.51;63.40
58239;BME280;44037;55.638;37.356;2023-03-11T01:50:10;98576.84;;;-4.52;63.68
58239;BME280;44037;55.638;37.356;2023-03-11T01:52:40;98579.31;;;-4.54;63.44
58239;BME280;44037;55.638;37.356;2023-03-11T01:55:09;98585.13;;;-4.55;63.53
58239;BME280;44037;55.638;37.356;2023-03-11T01:57:41;98575.94;;;-4.53;63.56
58239;BME280;44037;55.638;37.356;2023-03-11T02:00:12;98576.91;;;-4.51;63.83
58239;BME280;44037;55.638;37.356;2023-03-11T02:02:42;98575.31;;;-4.49;63.75
58239;BME280;44037;55.638;37.356;2023-03-11T02:05:12;98576.22;;;-4.48;63.83
58239;BME280;44037;55.638;37.356;2023-03-11T02:07:40;98575.31;;;-4.49;63.63
58239;BME280;44037;55.638;37.356;2023-03-11T02:10:09;98582.06;;;-4.49;63.62
58239;BME280;44037;55.638;37.356;2023-03-11T02:12:38;98575.50;;;-4.45;63.96
58239;BME280;44037;55.638;37.356;2023-03-11T02:15:08;98572.88;;;-4.47;63.67
58239;BME280;44037;55.638;37.356;2023-03-11T02:17:36;98569.47;;;-4.48;63.80
58239;BME280;44037;55.638;37.356;2023-03-11T02:20:18;98561.09;;;-4.47;64.12
58239;BME280;44037;55.638;37.356;2023-03-11T02:22:48;98566.16;;;-4.47;64.28
58239;BME280;44037;55.638;37.356;2023-03-11T02:25:21;98561.91;;;-4.48;64.34
58239;BME280;44037;55.638;37.356;2023-03-11T02:27:52;98566.00;;;-4.50;64.21
58239;BME280;44037;55.638;37.356;2023-03-11T02:30:21;98558.25;;;-4.53;64.43
58239;BME280;44037;55.638;37.356;2023-03-11T02:32:49;98562.28;;;-4.56;64.56
58239;BME280;44037;55.638;37.356;2023-03-11T02:35:17;98552.09;;;-4.58;64.80
58239;BME280;44037;55.638;37.356;2023-03-11T02:37:45;98554.63;;;-4.58;65.15
58239;BME280;44037;55.638;37.356;2023-03-11T02:40:52;98563.00;;;-4.59;64.85
58239;BME280;44037;55.638;37.356;2023-03-11T02:43:27;98562.13;;;-4.59;65.21
58239;BME280;44037;55.638;37.356;2023-03-11T02:45:58;98556.22;;;-4.60;65.67
58239;BME280;44037;55.638;37.356;2023-03-11T02:48:26;98568.91;;;-4.58;65.99
58239;BME280;44037;55.638;37.356;2023-03-11T02:50:55;98559.53;;;-4.61;65.86
58239;BME280;44037;55.638;37.356;2023-03-11T02:53:23;98560.31;;;-4.62;66.18
58239;BME280;44037;55.638;37.356;2023-03-11T02:55:51;98553.50;;;-4.63;66.23
58239;BME280;44037;55.638;37.356;2023-03-11T02:58:18;98552.56;;;-4.65;66.19
58239;BME280;44037;55.638;37.356;2023-03-11T03:00:46;98562.38;;;-4.71;66.51
58239;BME280;44037;55.638;37.356;2023-03-11T03:03:13;98557.88;;;-4.77;66.89
58239;BME280;44037;55.638;37.356;2023-03-11T03:05:40;98562.03;;;-4.78;67.32
58239;BME280;44037;55.638;37.356;2023-03-11T03:08:07;98567.09;;;-4.78;67.27
58239;BME280;44037;55.638;37.356;2023-03-11T03:10:34;98565.34;;;-4.79;67.37
58239;BME280;44037;55.638;37.356;2023-03-11T03:13:01;98564.41;;;-4.81;67.65
58239;BME280;44037;55.638;37.356;2023-03-11T03:15:28;98564.41;;;-4.81;67.67
58239;BME280;44037;55.638;37.356;2023-03-11T03:17:57;98563.47;;;-4.83;67.56
58239;BME280;44037;55.638;37.356;2023-03-11T03:20:24;98570.25;;;-4.82;67.67
58239;BME280;44037;55.638;37.356;2023-03-11T03:22:51;98572.56;;;-4.86;67.68
58239;BME280;44037;55.638;37.356;2023-03-11T03:25:19;98570.88;;;-4.86;68.17
58239;BME280;44037;55.638;37.356;2023-03-11T03:27:47;98568.34;;;-4.86;68.31
58239;BME280;44037;55.638;37.356;2023-03-11T03:30:14;98563.38;;;-4.84;68.01
58239;BME280;44037;55.638;37.356;2023-03-11T03:32:41;98572.69;;;-4.83;68.49
58239;BME280;44037;55.638;37.356;2023-03-11T03:35:10;98562.50;;;-4.85;68.48
58239;BME280;44037;55.638;37.356;2023-03-11T03:37:37;98567.50;;;-4.86;68.10
58239;BME280;44037;55.638;37.356;2023-03-11T03:40:06;98560.06;;;-4.83;68.71
58239;BME280;44037;55.638;37.356;2023-03-11T03:42:34;98556.06;;;-4.80;68.27
58239;BME280;44037;55.638;37.356;2023-03-11T03:45:02;98559.44;;;-4.79;68.47
58239;BME280;44037;55.638;37.356;2023-03-11T03:47:30;98552.63;;;-4.80;68.62
58239;BME280;44037;55.638;37.356;2023-03-11T03:49:58;98547.66;;;-4.79;68.65
58239;BME280;44037;55.638;37.356;2023-03-11T03:52:26;98558.66;;;-4.78;68.37
58239;BME280;44037;55.638;37.356;2023-03-11T03:54:53;98549.41;;;-4.78;68.58
58239;BME280;44037;55.638;37.356;2023-03-11T03:57:20;98551.06;;;-4.78;68.54
58239;BME280;44037;55.638;37.356;2023-03-11T03:59:47;98547.59;;;-4.80;68.47
58239;BME280;44037;55.638;37.356;2023-03-11T04:02:14;98540.72;;;-4.83;68.81
58239;BME280;44037;55.638;37.356;2023-03-11T04:04:41;98540.72;;;-4.83;68.95
58239;BME280;44037;55.638;37.356;2023-03-11T04:07:08;98544.03;;;-4.84;68.91
58239;BME280;44037;55.638;37.356;2023-03-11T04:09:39;98539.59;;;-4.88;68.79
58239;BME280;44037;55.638;37.356;2023-03-11T04:12:07;98535.19;;;-4.92;68.96
58239;BME280;44037;55.638;37.356;2023-03-11T04:14:38;98535.88;;;-4.95;69.20
58239;BME280;44037;55.638;37.356;2023-03-11T04:17:05;98531.59;;;-4.96;69.06
58239;BME280;44037;55.638;37.356;2023-03-11T04:19:32;98521.44;;;-4.97;69.17
58239;BME280;44037;55.638;37.356;2023-03-11T04:21:59;98524.56;;;-5.01;69.24
58239;BME280;44037;55.638;37.356;2023-03-11T04:24:27;98510.31;;;-5.01;69.51
58239;BME280;44037;55.638;37.356;2023-03-11T04:26:56;98510.38;;;-4.99;69.38
58239;BME280;44037;55.638;37.356;2023-03-11T04:29:23;98514.81;;;-4.95;69.53
58239;BME280;44037;55.638;37.356;2023-03-11T04:31:50;98509.81;;;-4.94;69.69
58239;BME280;44037;55.638;37.356;2023-03-11T04:34:17;98506.56;;;-4.91;69.92
58239;BME280;44037;55.638;37.356;2023-03-11T04:36:44;98510.84;;;-4.90;70.25
58239;BME280;44037;55.638;37.356;2023-03-11T04:39:11;98503.38;;;-4.88;70.24
58239;BME280;44037;55.638;37.356;2023-03-11T04:41:38;98499.16;;;-4.88;70.15
58239;BME280;44037;55.638;37.356;2023-03-11T04:44:07;98500.13;;;-4.86;69.97
58239;BME280;44037;55.638;37.356;2023-03-11T04:46:34;98497.59;;;-4.86;70.10
58239;BME280;44037;55.638;37.356;2023-03-11T04:49:01;98493.41;;;-4.85;70.36
58239;BME280;44037;55.638;37.356;2023-03-11T04:51:28;98496.81;;;-4.85;70.29
58239;BME280;44037;55.638;37.356;2023-03-11T04:53:55;98497.75;;;-4.83;70.04
58239;BME280;44037;55.638;37.356;2023-03-11T04:56:22;98503.84;;;-4.79;70.63
58239;BME280;44037;55.638;37.356;2023-03-11T04:58:49;98492.03;;;-4.79;70.23
58239;BME280;44037;55.638;37.356;2023-03-11T05:01:18;98483.78;;;-4.76;70.70
58239;BME280;44037;55.638;37.356;2023-03-11T05:03:45;98489.00;;;-4.73;70.48
58239;BME280;44037;55.638;37.356;2023-03-11T05:06:12;98490.88;;;-4.69;70.38
58239;BME280;44037;55.638;37.356;2023-03-11T05:08:39;98485.09;;;-4.66;70.54
58239;BME280;44037;55.638;37.356;2023-03-11T05:11:06;98481.94;;;-4.62;70.66
58239;BME280;44037;55.638;37.356;2023-03-11T05:13:33;98482.16;;;-4.57;70.73
58239;BME280;44037;55.638;37.356;2023-03-11T05:16:01;98479.72;;;-4.56;70.78
58239;BME280;44037;55.638;37.356;2023-03-11T05:18:29;98491.66;;;-4.53;70.64
58239;BME280;44037;55.638;37.356;2023-03-11T05:20:57;98486.75;;;-4.50;70.62
58239;BME280;44037;55.638;37.356;2023-03-11T05:23:24;98484.28;;;-4.49;70.91
58239;BME280;44037;55.638;37.356;2023-03-11T05:25:51;98488.63;;;-4.46;70.87
58239;BME280;44037;55.638;37.356;2023-03-11T05:28:18;98476.00;;;-4.46;71.24
58239;BME280;44037;55.638;37.356;2023-03-11T05:30:45;98485.25;;;-4.47;71.51
58239;BME280;44037;55.638;37.356;2023-03-11T05:33:12;98480.19;;;-4.47;71.37
58239;BME280;44037;55.638;37.356;2023-03-11T05:35:40;98486.03;;;-4.48;71.88
58239;BME280;44037;55.638;37.356;2023-03-11T05:38:08;98476.72;;;-4.49;71.62
58239;BME280;44037;55.638;37.356;2023-03-11T05:40:35;98480.81;;;-4.51;71.61
58239;BME280;44037;55.638;37.356;2023-03-11T05:43:02;98473.31;;;-4.49;72.30
58239;BME280;44037;55.638;37.356;2023-03-11T05:45:29;98479.41;;;-4.45;72.10
58239;BME280;44037;55.638;37.356;2023-03-11T05:47:56;98478.78;;;-4.41;72.66
58239;BME280;44037;55.638;37.356;2023-03-11T05:50:23;98477.31;;;-4.36;72.14
58239;BME280;44037;55.638;37.356;2023-03-11T05:52:52;98479.06;;;-4.35;72.06
58239;BME280;44037;55.638;37.356;2023-03-11T05:55:19;98480.00;;;-4.33;72.60
58239;BME280;44037;55.638;37.356;2023-03-11T05:57:46;98471.78;;;-4.29;72.75
58239;BME280;44037;55.638;37.356;2023-03-11T06:00:17;98475.25;;;-4.27;72.22
58239;BME280;44037;55.638;37.356;2023-03-11T06:02:45;98482.19;;;-4.23;72.90
58239;BME280;44037;55.638;37.356;2023-03-11T06:05:12;98474.91;;;-4.17;72.99
58239;BME280;44037;55.638;37.356;2023-03-11T06:07:39;98468.34;;;-4.13;73.01
58239;BME280;44037;55.638;37.356;2023-03-11T06:10:09;98476.09;;;-4.10;72.38
58239;BME280;44037;55.638;37.356;2023-03-11T06:12:36;98465.41;;;-4.04;72.80
58239;BME280;44037;55.638;37.356;2023-03-11T06:15:05;98469.78;;;-4.00;72.55
58239;BME280;44037;55.638;37.356;2023-03-11T06:17:32;98475.16;;;-3.94;72.48
58239;BME280;44037;55.638;37.356;2023-03-11T06:19:59;98467.78;;;-3.89;72.62
58239;BME280;44037;55.638;37.356;2023-03-11T06:22:26;98467.78;;;-3.89;72.49
58239;BME280;44037;55.638;37.356;2023-03-11T06:24:53;98461.03;;;-3.89;72.64
58239;BME280;44037;55.638;37.356;2023-03-11T06:27:22;98461.72;;;-3.93;72.49
58239;BME280;44037;55.638;37.356;2023-03-11T06:29:51;98457.13;;;-4.00;72.16
58239;BME280;44037;55.638;37.356;2023-03-11T06:32:19;98453.53;;;-4.05;72.87
58239;BME280;44037;55.638;37.356;2023-03-11T06:34:49;98439.84;;;-4.09;72.37
58239;BME280;44037;55.638;37.356;2023-03-11T06:37:16;98444.03;;;-4.09;72.96
58239;BME280;44037;55.638;37.356;2023-03-11T06:39:43;98449.91;;;-4.10;73.10
58239;BME280;44037;55.638;37.356;2023-03-11T06:42:10;98451.69;;;-4.08;73.05
58239;BME280;44037;55.638;37.356;2023-03-11T06:44:39;98451.84;;;-4.05;73.10
58239;BME280;44037;55.638;37.356;2023-03-11T06:47:06;98450.13;;;-4.06;72.96
58239;BME280;44037;55.638;37.356;2023-03-11T06:49:33;98455.19;;;-4.06;73.19
58239;BME280;44037;55.638;37.356;2023-03-11T06:52:01;98454.81;;;-3.95;73.67
58239;BME280;44037;55.638;37.356;2023-03-11T06:54:28;98453.03;;;-3.80;73.71
58239;BME280;44037;55.638;37.356;2023-03-11T06:56:55;98457.13;;;-3.64;73.46
58239;BME280;44037;55.638;37.356;2023-03-11T06:59:22;98441.44;;;-3.57;73.51
58239;BME280;44037;55.638;37.356;2023-03-11T07:01:51;98429.56;;;-3.58;73.90
58239;BME280;44037;55.638;37.356;2023-03-11T07:04:18;98437.97;;;-3.59;73.88
58239;BME280;44037;55.638;37.356;2023-03-11T07:06:45;98444.81;;;-3.56;73.88
58239;BME280;44037;55.638;37.356;2023-03-11T07:09:13;98439.16;;;-3.50;73.88
58239;BME280;44037;55.638;37.356;2023-03-11T07:11:40;98426.28;;;-3.37;73.99
58239;BME280;44037;55.638;37.356;2023-03-11T07:14:08;98424.03;;;-3.31;73.50
58239;BME280;44037;55.638;37.356;2023-03-11T07:16:37;98424.28;;;-3.25;73.51
58239;BME280;44037;55.638;37.356;2023-03-11T07:19:06;98415.47;;;-3.13;73.18
58239;BME280;44037;55.638;37.356;2023-03-11T07:21:33;98420.22;;;-3.01;73.99
58239;BME280;44037;55.638;37.356;2023-03-11T07:24:01;98420.38;;;-2.98;73.49
58239;BME280;44037;55.638;37.356;2023-03-11T07:26:30;98415.31;;;-2.98;73.00
58239;BME280;44037;55.638;37.356;2023-03-11T07:28:58;98415.34;;;-2.97;72.55
58239;BME280;44037;55.638;37.356;2023-03-11T07:31:27;98400.94;;;-2.98;72.60
58239;BME280;44037;55.638;37.356;2023-03-11T07:33:56;98387.53;;;-2.95;72.66
58239;BME280;44037;55.638;37.356;2023-03-11T07:36:26;98383.59;;;-2.88;72.83
58239;BME280;44037;55.638;37.356;2023-03-11T07:38:57;98375.31;;;-2.84;72.62
58239;BME280;44037;55.638;37.356;2023-03-11T07:41:25;98388.06;;;-2.83;72.49
58239;BME280;44037;55.638;37.356;2023-03-11T07:43:54;98363.31;;;-2.88;72.38
58239;BME280;44037;55.638;37.356;2023-03-11T07:46:22;98348.66;;;-2.96;72.77
58239;BME280;44037;55.638;37.356;2023-03-11T07:48:50;98365.31;;;-3.01;72.59
58239;BME280;44037;55.638;37.356;2023-03-11T07:51:19;98359.69;;;-3.15;73.29
58239;BME280;44037;55.638;37.356;2023-03-11T07:53:50;98359.47;;;-3.19;73.64
58239;BME280;44037;55.638;37.356;2023-03-11T07:56:18;98350.69;;;-3.28;73.51
58239;BME280;44037;55.638;37.356;2023-03-11T07:58:45;98341.97;;;-3.34;74.22
58239;BME280;44037;55.638;37.356;2023-03-11T08:01:14;98347.75;;;-3.37;74.36
58239;BME280;44037;55.638;37.356;2023-03-11T08:03:42;98344.22;;;-3.41;74.51
58239;BME280;44037;55.638;37.356;2023-03-11T08:06:13;98343.13;;;-3.46;74.52
58239;BME280;44037;55.638;37.356;2023-03-11T08:08:40;98317.88;;;-3.44;75.27
58239;BME280;44037;55.638;37.356;2023-03-11T08:11:09;98336.00;;;-3.35;74.76
58239;BME280;44037;55.638;37.356;2023-03-11T08:13:37;98332.22;;;-3.25;75.00
58239;BME280;44037;55.638;37.356;2023-03-11T08:16:06;98330.06;;;-3.16;75.08
58239;BME280;44037;55.638;37.356;2023-03-11T08:18:33;98305.81;;;-3.11;75.45
58239;BME280;44037;55.638;37.356;2023-03-11T08:21:03;98316.97;;;-3.05;75.16
58239;BME280;44037;55.638;37.356;2023-03-11T08:23:30;98305.56;;;-2.96;75.34
58239;BME280;44037;55.638;37.356;2023-03-11T08:25:57;98303.59;;;-2.82;75.18
58239;BME280;44037;55.638;37.356;2023-03-11T08:28:26;98296.25;;;-2.75;74.78
58239;BME280;44037;55.638;37.356;2023-03-11T08:30:53;98293.53;;;-2.80;75.08
58239;BME280;44037;55.638;37.356;2023-03-11T08:33:20;98311.06;;;-2.64;74.08
58239;BME280;44037;55.638;37.356;2023-03-11T08:35:47;98303.56;;;-2.39;73.80
58239;BME280;44037;55.638;37.356;2023-03-11T08:38:14;98315.94;;;-2.26;74.43
58239;BME280;44037;55.638;37.356;2023-03-11T08:40:41;98311.03;;;-2.21;74.19
58239;BME280;44037;55.638;37.356;2023-03-11T08:43:11;98321.66;;;-2.32;74.01
58239;BME280;44037;55.638;37.356;2023-03-11T08:45:40;98328.19;;;-2.37;73.74
58239;BME280;44037;55.638;37.356;2023-03-11T08:48:09;98319.16;;;-2.51;73.85
58239;BME280;44037;55.638;37.356;2023-03-11T08:50:36;98319.38;;;-2.68;73.94
58239;BME280;44037;55.638;37.356;2023-03-11T08:53:05;98294.50;;;-2.76;73.99
58239;BME280;44037;55.638;37.356;2023-03-11T08:55:33;98278.63;;;-2.94;73.93
58239;BME280;44037;55.638;37.356;2023-03-11T08:58:01;98298.13;;;-3.12;74.34
58239;BME280;44037;55.638;37.356;2023-03-11T09:00:28;98294.13;;;-3.27;74.79
58239;BME280;44037;55.638;37.356;2023-03-11T09:02:56;98285.97;;;-3.41;75.50
58239;BME280;44037;55.638;37.356;2023-03-11T09:05:23;98288.63;;;-3.57;75.65
58239;BME280;44037;55.638;37.356;2023-03-11T09:07:50;98290.16;;;-3.61;76.26
58239;BME280;44037;55.638;37.356;2023-03-11T09:10:18;98282.69;;;-3.58;77.07
58239;BME280;44037;55.638;37.356;2023-03-11T09:12:45;98278.22;;;-3.44;76.91
58239;BME280;44037;55.638;37.356;2023-03-11T09:15:12;98284.00;;;-3.27;77.41
58239;BME280;44037;55.638;37.356;2023-03-11T09:17:39;98282.59;;;-3.20;77.86
58239;BME280;44037;55.638;37.356;2023-03-11T09:20:11;98281.97;;;-3.14;78.45
58239;BME280;44037;55.638;37.356;2023-03-11T09:22:38;98292.81;;;-3.18;78.21
58239;BME280;44037;55.638;37.356;2023-03-11T09:25:06;98287.75;;;-3.18;78.63
58239;BME280;44037;55.638;37.356;2023-03-11T09:27:34;98284.28;;;-3.20;78.79
58239;BME280;44037;55.638;37.356;2023-03-11T09:30:01;98254.44;;;-3.28;78.80
58239;BME280;44037;55.638;37.356;2023-03-11T09:32:29;98274.41;;;-3.34;79.24
58239;BME280;44037;55.638;37.356;2023-03-11T09:34:56;98273.63;;;-3.33;79.68
58239;BME280;44037;55.638;37.356;2023-03-11T09:37:26;98273.63;;;-3.33;79.94
58239;BME280;44037;55.638;37.356;2023-03-11T09:39:54;98271.09;;;-3.33;80.01
58239;BME280;44037;55.638;37.356;2023-03-11T09:42:28;98255.09;;;-3.32;80.30
58239;BME280;44037;55.638;37.356;2023-03-11T09:45:02;98261.88;;;-3.31;80.00
58239;BME280;44037;55.638;37.356;2023-03-11T09:47:36;98254.28;;;-3.31;79.88
58239;BME280;44037;55.638;37.356;2023-03-11T09:50:17;98232.47;;;-3.27;80.58
58239;BME280;44037;55.638;37.356;2023-03-11T09:52:53;98236.13;;;-3.20;80.07
58239;BME280;44037;55.638;37.356;2023-03-11T09:55:34;98216.94;;;-3.15;80.27
58239;BME280;44037;55.638;37.356;2023-03-11T09:58:08;98222.91;;;-3.13;79.73
58239;BME280;44037;55.638;37.356;2023-03-11T10:00:37;98223.91;;;-3.10;80.05
58239;BME280;44037;55.638;37.356;2023-03-11T10:03:13;98224.63;;;-3.12;79.13
58239;BME280;44037;55.638;37.356;2023-03-11T10:05:44;98213.47;;;-3.17;79.55
58239;BME280;44037;55.638;37.356;2023-03-11T10:08:18;98217.59;;;-3.19;79.11
58239;BME280;44037;55.638;37.356;2023-03-11T10:10:55;98199.59;;;-3.26;79.21
58239;BME280;44037;55.638;37.356;2023-03-11T10:13:29;98193.53;;;-3.29;79.20
58239;BME280;44037;55.638;37.356;2023-03-11T10:16:07;98188.44;;;-3.31;79.44
58239;BME280;44037;55.638;37.356;2023-03-11T10:18:48;98175.00;;;-3.28;79.04
58239;BME280;44037;55.638;37.356;2023-03-11T10:21:25;98175.31;;;-3.20;78.75
58239;BME280;44037;55.638;37.356;2023-03-11T10:24:11;98161.53;;;-3.06;78.78
58239;BME280;44037;55.638;37.356;2023-03-11T10:26:42;98157.16;;;-2.87;78.48
58239;BME280;44037;55.638;37.356;2023-03-11T10:29:15;98139.03;;;-2.75;78.25
58239;BME280;44037;55.638;37.356;2023-03-11T10:31:47;98146.81;;;-2.71;77.37
58239;BME280;44037;55.638;37.356;2023-03-11T10:34:19;98143.59;;;-2.67;77.29
58239;BME280;44037;55.638;37.356;2023-03-11T10:36:54;98143.00;;;-2.59;77.33
58239;BME280;44037;55.638;37.356;2023-03-11T10:39:24;98148.25;;;-2.55;77.45
58239;BME280;44037;55.638;37.356;2023-03-11T10:41:54;98130.50;;;-2.55;77.05
58239;BME280;44037;55.638;37.356;2023-03-11T10:44:27;98125.25;;;-2.59;77.02
58239;BME280;44037;55.638;37.356;2023-03-11T10:46:55;98127.75;;;-2.61;76.68
58239;BME280;44037;55.638;37.356;2023-03-11T10:49:22;98107.19;;;-2.69;76.28
58239;BME280;44037;55.638;37.356;2023-03-11T10:51:50;98118.69;;;-2.77;75.86
58239;BME280;44037;55.638;37.356;2023-03-11T10:54:25;98104.97;;;-2.82;76.01
58239;BME280;44037;55.638;37.356;2023-03-11T10:56:57;98096.41;;;-2.86;75.90
58239;BME280;44037;55.638;37.356;2023-03-11T10:59:27;98103.00;;;-2.89;76.16
58239;BME280;44037;55.638;37.356;2023-03-11T11:01:57;98099.88;;;-2.84;76.39
58239;BME280;44037;55.638;37.356;2023-03-11T11:04:30;98098.41;;;-2.77;76.60
58239;BME280;44037;55.638;37.356;2023-03-11T11:07:26;98086.88;;;-2.69;76.40
58239;BME280;44037;55.638;37.356;2023-03-11T11:10:13;98077.88;;;-2.60;76.18
58239;BME280;44037;55.638;37.356;2023-03-11T11:12:54;98078.28;;;-2.50;76.25
58239;BME280;44037;55.638;37.356;2023-03-11T11:15:26;98083.50;;;-2.45;75.64
58239;BME280;44037;55.638;37.356;2023-03-11T11:17:56;98093.66;;;-2.45;75.71
58239;BME280;44037;55.638;37.356;2023-03-11T11:20:25;98091.81;;;-2.49;75.61
58239;BME280;44037;55.638;37.356;2023-03-11T11:22:54;98073.63;;;-2.62;75.72
58239;BME280;44037;55.638;37.356;2023-03-11T11:25:31;98065.69;;;-2.71;75.88
58239;BME280;44037;55.638;37.356;2023-03-11T11:28:01;98071.34;;;-2.78;76.21
58239;BME280;44037;55.638;37.356;2023-03-11T11:30:30;98053.47;;;-2.81;76.27
58239;BME280;44037;55.638;37.356;2023-03-11T11:33:21;98057.50;;;-2.86;76.49
58239;BME280;44037;55.638;37.356;2023-03-11T11:35:50;98059.09;;;-2.88;76.12
58239;BME280;44037;55.638;37.356;2023-03-11T11:38:21;98063.28;;;-2.90;76.59
58239;BME280;44037;55.638;37.356;2023-03-11T11:40:52;98058.22;;;-2.90;77.08
58239;BME280;44037;55.638;37.356;2023-03-11T11:43:25;98052.31;;;-2.89;76.99
58239;BME280;44037;55.638;37.356;2023-03-11T11:46:01;98057.38;;;-2.89;77.18
58239;BME280;44037;55.638;37.356;2023-03-11T11:48:34;98060.63;;;-2.94;77.11
58239;BME280;44037;55.638;37.356;2023-03-11T11:51:14;98054.59;;;-2.97;77.12
58239;BME280;44037;55.638;37.356;2023-03-11T11:53:47;98048.63;;;-2.98;77.72
58239;BME280;44037;55.638;37.356;2023-03-11T11:56:17;98057.16;;;-2.96;77.24
58239;BME280;44037;55.638;37.356;2023-03-11T11:58:44;98042.75;;;-2.97;77.97
58239;BME280;44037;55.638;37.356;2023-03-11T12:01:15;98040.91;;;-3.01;77.72
58239;BME280;44037;55.638;37.356;2023-03-11T12:04:06;98036.66;;;-3.02;77.88
58239;BME280;44037;55.638;37.356;2023-03-11T12:06:46;98040.91;;;-3.01;78.18
58239;BME280;44037;55.638;37.356;2023-03-11T12:09:21;98041.91;;;-2.97;78.15
58239;BME280;44037;55.638;37.356;2023-03-11T12:11:57;98028.66;;;-2.90;78.59
58239;BME280;44037;55.638;37.356;2023-03-11T12:14:34;98023.06;;;-2.81;78.11
58239;BME280;44037;55.638;37.356;2023-03-11T12:17:03;98034.16;;;-2.78;78.26
58239;BME280;44037;55.638;37.356;2023-03-11T12:19:36;98026.78;;;-2.71;78.19
58239;BME280;44037;55.638;37.356;2023-03-11T12:22:28;98026.59;;;-2.76;78.47
58239;BME280;44037;55.638;37.356;2023-03-11T12:25:16;98035.13;;;-2.74;78.62
58239;BME280;44037;55.638;37.356;2023-03-11T12:27:51;98020.69;;;-2.76;78.44
58239;BME280;44037;55.638;37.356;2023-03-11T12:30:22;98019.00;;;-2.76;78.72
58239;BME280;44037;55.638;37.356;2023-03-11T12:32:54;98026.59;;;-2.76;78.59
58239;BME280;44037;55.638;37.356;2023-03-11T12:35:24;98024.78;;;-2.80;78.51
58239;BME280;44037;55.638;37.356;2023-03-11T12:38:03;98018.78;;;-2.82;79.33
58239;BME280;44037;55.638;37.356;2023-03-11T12:40:45;98013.69;;;-2.84;79.17
58239;BME280;44037;55.638;37.356;2023-03-11T12:43:26;98021.31;;;-2.82;79.14
58239;BME280;44037;55.638;37.356;2023-03-11T12:45:55;98025.59;;;-2.81;79.28
58239;BME280;44037;55.638;37.356;2023-03-11T12:48:34;98013.72;;;-2.82;79.32
58239;BME280;44037;55.638;37.356;2023-03-11T12:51:01;98004.59;;;-2.77;79.92
58239;BME280;44037;55.638;37.356;2023-03-11T12:53:44;98011.34;;;-2.78;79.43
58239;BME280;44037;55.638;37.356;2023-03-11T12:56:29;98010.50;;;-2.78;79.78
58239;BME280;44037;55.638;37.356;2023-03-11T12:59:23;98001.97;;;-2.80;79.74
58239;BME280;44037;55.638;37.356;2023-03-11T13:02:04;97999.53;;;-2.77;80.37
58239;BME280;44037;55.638;37.356;2023-03-11T13:05:02;97976.63;;;-2.80;79.72